sensor_id;sensor_type;location;lat;lon;timestamp;temperature;humidity
3478;DHT22;37937;61.490;23.506;2022-12-15T00:01:17;-9.50;99.90
3478;DHT22;37937;61.490;23.506;2022-12-15T00:04:02;-9.40;99.90
3478;DHT22;37937;61.490;23.506;2022-12-15T00:06:46;-9.30;99.90
3478;DHT22;37937;61.490;23.506;2022-12-15T00:09:30;-9.30;99.90
3478;DHT22;37937;61.490;23.506;2022-12-15T00:12:14;-9.30;99.90
3478;DHT22;37937;61.490;23.506;2022-12-15T00:14:58;-9.30;99.90
3478;DHT22;37937;61.490;23.506;2022-12-15T00:17:42;-9.30;99.90
3478;DHT22;37937;61.490;23.506;2022-12-15T00:20:27;-9.30;99.90
3478;DHT22;37937;61.490;23.506;2022-12-15T00:23:11;-9.30;99.90
3478;DHT22;37937;61.490;23.506;2022-12-15T00:25:55;-9.40;99.90
3478;DHT22;37937;61.490;23.506;2022-12-15T00:28:40;-9.50;99.90
3478;DHT22;37937;61.490;23.506;2022-12-15T00:31:24;-9.60;99.90
3478;DHT22;37937;61.490;23.506;2022-12-15T00:34:08;-9.50;99.90
3478;DHT22;37937;61.490;23.506;2022-12-15T00:36:53;-9.40;99.90
3478;DHT22;37937;61.490;23.506;2022-12-15T00:39:37;-9.40;99.90
3478;DHT22;37937;61.490;23.506;2022-12-15T00:42:05;-9.40;99.90
3478;DHT22;37937;61.490;23.506;2022-12-15T00:44:30;-9.40;99.90
3478;DHT22;37937;61.490;23.506;2022-12-15T00:46:56;-9.40;99.90
3478;DHT22;37937;61.490;23.506;2022-12-15T00:49:22;-9.40;99.90
3478;DHT22;37937;61.490;23.506;2022-12-15T00:52:07;-9.40;99.90
3478;DHT22;37937;61.490;23.506;2022-12-15T00:54:51;-9.40;99.90
3478;DHT22;37937;61.490;23.506;2022-12-15T00:57:35;-9.40;99.90
3478;DHT22;37937;61.490;23.506;2022-12-15T01:00:20;-9.40;99.90
3478;DHT22;37937;61.490;23.506;2022-12-15T01:03:14;-9.40;99.90
3478;DHT22;37937;61.490;23.506;2022-12-15T01:05:59;-9.40;99.90
3478;DHT22;37937;61.490;23.506;2022-12-15T01:08:43;-9.40;99.90
3478;DHT22;37937;61.490;23.506;2022-12-15T01:11:27;-9.40;99.90
3478;DHT22;37937;61.490;23.506;2022-12-15T01:14:11;-9.40;99.90
3478;DHT22;37937;61.490;23.506;2022-12-15T01:16:57;-9.50;99.90
3478;DHT22;37937;61.490;23.506;2022-12-15T01:19:41;-9.50;99.90
3478;DHT22;37937;61.490;23.506;2022-12-15T01:22:25;-9.50;99.90
3478;DHT22;37937;61.490;23.506;2022-12-15T01:24:51;-9.50;99.90
3478;DHT22;37937;61.490;23.506;2022-12-15T01:27:16;-9.50;99.90
3478;DHT22;37937;61.490;23.506;2022-12-15T01:29:42;-9.60;99.90
3478;DHT22;37937;61.490;23.506;2022-12-15T01:32:08;-9.60;99.90
3478;DHT22;37937;61.490;23.506;2022-12-15T01:34:34;-9.60;99.90
3478;DHT22;37937;61.490;23.506;2022-12-15T01:36:59;-9.60;99.90
3478;DHT22;37937;61.490;23.506;2022-12-15T01:39:25;-9.60;99.90
3478;DHT22;37937;61.490;23.506;2022-12-15T01:42:14;-9.60;99.90
3478;DHT22;37937;61.490;23.506;2022-12-15T01:44:39;-9.70;99.90
3478;DHT22;37937;61.490;23.506;2022-12-15T01:47:07;-9.70;99.90
3478;DHT22;37937;61.490;23.506;2022-12-15T01:49:33;-9.70;99.90
3478;DHT22;37937;61.490;23.506;2022-12-15T01:51:59;-10.00;99.90
3478;DHT22;37937;61.490;23.506;2022-12-15T01:54:33;-10.00;99.90
3478;DHT22;37937;61.490;23.506;2022-12-15T01:57:01;-10.10;99.90
3478;DHT22;37937;61.490;23.506;2022-12-15T01:59:33;-10.00;99.90
3478;DHT22;37937;61.490;23.506;2022-12-15T02:02:00;-10.00;99.90
3478;DHT22;37937;61.490;23.506;2022-12-15T02:04:26;-10.00;99.90
3478;DHT22;37937;61.490;23.506;2022-12-15T02:06:52;-10.00;99.90
3478;DHT22;37937;61.490;23.506;2022-12-15T02:09:18;-9.90;99.90
3478;DHT22;37937;61.490;23.506;2022-12-15T02:14:11;-9.90;99.90
3478;DHT22;37937;61.490;23.506;2022-12-15T02:21:35;-10.00;99.90
3478;DHT22;37937;61.490;23.506;2022-12-15T02:24:26;-10.00;99.90
3478;DHT22;37937;61.490;23.506;2022-12-15T02:27:15;-10.70;99.90
3478;DHT22;37937;61.490;23.506;2022-12-15T02:32:15;-10.60;99.90
3478;DHT22;37937;61.490;23.506;2022-12-15T02:39:34;-11.20;99.90
3478;DHT22;37937;61.490;23.506;2022-12-15T02:42:00;-10.80;99.90
3478;DHT22;37937;61.490;23.506;2022-12-15T02:44:27;-10.60;99.90
3478;DHT22;37937;61.490;23.506;2022-12-15T02:49:45;-10.40;99.90
3478;DHT22;37937;61.490;23.506;2022-12-15T02:58:05;-10.80;99.90
3478;DHT22;37937;61.490;23.506;2022-12-15T03:00:22;-10.60;99.90
3478;DHT22;37937;61.490;23.506;2022-12-15T03:02:49;-10.40;99.90
3478;DHT22;37937;61.490;23.506;2022-12-15T03:05:15;-10.40;99.90
3478;DHT22;37937;61.490;23.506;2022-12-15T03:07:41;-10.80;99.90
3478;DHT22;37937;61.490;23.506;2022-12-15T03:10:07;-10.90;99.90
3478;DHT22;37937;61.490;23.506;2022-12-15T03:12:33;-10.90;99.90
3478;DHT22;37937;61.490;23.506;2022-12-15T03:14:59;-11.00;99.90
3478;DHT22;37937;61.490;23.506;2022-12-15T03:17:24;-10.90;99.90
3478;DHT22;37937;61.490;23.506;2022-12-15T03:19:50;-10.70;99.90
3478;DHT22;37937;61.490;23.506;2022-12-15T03:22:15;-10.70;99.90
3478;DHT22;37937;61.490;23.506;2022-12-15T03:24:41;-10.60;99.90
3478;DHT22;37937;61.490;23.506;2022-12-15T03:27:07;-10.50;99.90
3478;DHT22;37937;61.490;23.506;2022-12-15T03:29:32;-10.40;99.90
3478;DHT22;37937;61.490;23.506;2022-12-15T03:31:58;-10.40;99.90
3478;DHT22;37937;61.490;23.506;2022-12-15T03:34:23;-10.40;99.90
3478;DHT22;37937;61.490;23.506;2022-12-15T03:36:49;-10.40;99.90
3478;DHT22;37937;61.490;23.506;2022-12-15T03:39:14;-10.40;99.90
3478;DHT22;37937;61.490;23.506;2022-12-15T03:41:40;-10.40;99.90
3478;DHT22;37937;61.490;23.506;2022-12-15T03:44:06;-10.40;99.90
3478;DHT22;37937;61.490;23.506;2022-12-15T03:46:31;-10.40;99.90
3478;DHT22;37937;61.490;23.506;2022-12-15T03:48:57;-10.40;99.90
3478;DHT22;37937;61.490;23.506;2022-12-15T03:51:23;-10.40;99.90
3478;DHT22;37937;61.490;23.506;2022-12-15T03:53:48;-10.40;99.90
3478;DHT22;37937;61.490;23.506;2022-12-15T03:56:14;-10.40;99.90
3478;DHT22;37937;61.490;23.506;2022-12-15T03:58:40;-10.40;99.90
3478;DHT22;37937;61.490;23.506;2022-12-15T04:01:10;-10.40;99.90
3478;DHT22;37937;61.490;23.506;2022-12-15T04:03:35;-10.30;99.90
3478;DHT22;37937;61.490;23.506;2022-12-15T04:06:01;-10.30;99.90
3478;DHT22;37937;61.490;23.506;2022-12-15T04:08:27;-10.30;99.90
3478;DHT22;37937;61.490;23.506;2022-12-15T04:10:52;-10.30;99.90
3478;DHT22;37937;61.490;23.506;2022-12-15T04:13:18;-10.30;99.90
3478;DHT22;37937;61.490;23.506;2022-12-15T04:15:43;-10.20;99.90
3478;DHT22;37937;61.490;23.506;2022-12-15T04:18:09;-10.20;99.90
3478;DHT22;37937;61.490;23.506;2022-12-15T04:20:35;-10.20;99.90
3478;DHT22;37937;61.490;23.506;2022-12-15T04:23:01;-10.00;99.90
3478;DHT22;37937;61.490;23.506;2022-12-15T04:25:27;-10.20;99.90
3478;DHT22;37937;61.490;23.506;2022-12-15T04:28:11;-10.10;99.90
3478;DHT22;37937;61.490;23.506;2022-12-15T04:30:59;-10.10;99.90
3478;DHT22;37937;61.490;23.506;2022-12-15T04:33:45;-10.10;99.90
3478;DHT22;37937;61.490;23.506;2022-12-15T04:36:30;-10.00;99.90
3478;DHT22;37937;61.490;23.506;2022-12-15T04:39:15;-10.00;99.90
3478;DHT22;37937;61.490;23.506;2022-12-15T04:42:00;-10.00;99.90
3478;DHT22;37937;61.490;23.506;2022-12-15T04:44:48;-10.00;99.90
3478;DHT22;37937;61.490;23.506;2022-12-15T04:47:32;-9.90;99.90
3478;DHT22;37937;61.490;23.506;2022-12-15T04:50:16;-10.00;99.90
3478;DHT22;37937;61.490;23.506;2022-12-15T04:53:07;-10.00;99.90
3478;DHT22;37937;61.490;23.506;2022-12-15T04:55:52;-10.00;99.90
3478;DHT22;37937;61.490;23.506;2022-12-15T04:58:36;-10.10;99.90
3478;DHT22;37937;61.490;23.506;2022-12-15T05:01:20;-10.10;99.90
3478;DHT22;37937;61.490;23.506;2022-12-15T05:04:04;-10.10;99.90
3478;DHT22;37937;61.490;23.506;2022-12-15T05:06:48;-10.10;99.90
3478;DHT22;37937;61.490;23.506;2022-12-15T05:09:32;-10.20;99.90
3478;DHT22;37937;61.490;23.506;2022-12-15T05:12:17;-10.10;99.90
3478;DHT22;37937;61.490;23.506;2022-12-15T05:15:01;-10.10;99.90
3478;DHT22;37937;61.490;23.506;2022-12-15T05:17:45;-10.20;99.90
3478;DHT22;37937;61.490;23.506;2022-12-15T05:20:29;-10.20;99.90
3478;DHT22;37937;61.490;23.506;2022-12-15T05:23:14;-10.50;99.90
3478;DHT22;37937;61.490;23.506;2022-12-15T05:25:58;-10.30;99.90
3478;DHT22;37937;61.490;23.506;2022-12-15T05:28:42;-10.30;99.90
3478;DHT22;37937;61.490;23.506;2022-12-15T05:31:26;-10.20;99.90
3478;DHT22;37937;61.490;23.506;2022-12-15T05:34:10;-10.40;99.90
3478;DHT22;37937;61.490;23.506;2022-12-15T05:36:36;-10.30;99.90
3478;DHT22;37937;61.490;23.506;2022-12-15T05:39:02;-10.30;99.90
3478;DHT22;37937;61.490;23.506;2022-12-15T05:41:28;-10.30;99.90
3478;DHT22;37937;61.490;23.506;2022-12-15T05:43:53;-10.50;99.90
3478;DHT22;37937;61.490;23.506;2022-12-15T05:46:19;-10.30;99.90
3478;DHT22;37937;61.490;23.506;2022-12-15T05:48:44;-10.20;99.90
3478;DHT22;37937;61.490;23.506;2022-12-15T05:51:11;-10.10;99.90
3478;DHT22;37937;61.490;23.506;2022-12-15T05:53:37;-10.10;99.90
3478;DHT22;37937;61.490;23.506;2022-12-15T05:56:03;-10.10;99.90
3478;DHT22;37937;61.490;23.506;2022-12-15T05:58:29;-10.10;99.90
3478;DHT22;37937;61.490;23.506;2022-12-15T06:01:01;-10.10;99.90
3478;DHT22;37937;61.490;23.506;2022-12-15T06:03:27;-10.10;99.90
3478;DHT22;37937;61.490;23.506;2022-12-15T06:05:52;-10.00;99.90
3478;DHT22;37937;61.490;23.506;2022-12-15T06:08:18;-10.00;99.90
3478;DHT22;37937;61.490;23.506;2022-12-15T06:10:43;-9.80;99.90
3478;DHT22;37937;61.490;23.506;2022-12-15T06:13:16;-9.90;99.90
3478;DHT22;37937;61.490;23.506;2022-12-15T06:15:41;-9.90;99.90
3478;DHT22;37937;61.490;23.506;2022-12-15T06:18:07;-9.90;99.90
3478;DHT22;37937;61.490;23.506;2022-12-15T06:20:32;-9.80;99.90
3478;DHT22;37937;61.490;23.506;2022-12-15T06:22:58;-9.80;99.90
3478;DHT22;37937;61.490;23.506;2022-12-15T06:25:24;-9.80;99.90
3478;DHT22;37937;61.490;23.506;2022-12-15T06:27:49;-9.80;99.90
3478;DHT22;37937;61.490;23.506;2022-12-15T06:30:15;-9.70;99.90
3478;DHT22;37937;61.490;23.506;2022-12-15T06:32:40;-9.80;99.90
3478;DHT22;37937;61.490;23.506;2022-12-15T06:35:06;-9.90;99.90
3478;DHT22;37937;61.490;23.506;2022-12-15T06:37:32;-9.90;99.90
3478;DHT22;37937;61.490;23.506;2022-12-15T06:39:57;-10.00;99.90
3478;DHT22;37937;61.490;23.506;2022-12-15T06:42:23;-9.90;99.90
3478;DHT22;37937;61.490;23.506;2022-12-15T06:44:48;-10.00;99.90
3478;DHT22;37937;61.490;23.506;2022-12-15T06:47:14;-9.90;99.90
3478;DHT22;37937;61.490;23.506;2022-12-15T06:49:39;-9.80;99.90
3478;DHT22;37937;61.490;23.506;2022-12-15T06:52:05;-9.80;99.90
3478;DHT22;37937;61.490;23.506;2022-12-15T06:54:31;-9.60;99.90
3478;DHT22;37937;61.490;23.506;2022-12-15T06:56:57;-9.90;99.90
3478;DHT22;37937;61.490;23.506;2022-12-15T06:59:22;-9.90;99.90
3478;DHT22;37937;61.490;23.506;2022-12-15T07:01:48;-9.90;99.90
3478;DHT22;37937;61.490;23.506;2022-12-15T07:04:14;-10.00;99.90
3478;DHT22;37937;61.490;23.506;2022-12-15T07:06:39;-10.00;99.90
3478;DHT22;37937;61.490;23.506;2022-12-15T07:09:06;-10.10;99.90
3478;DHT22;37937;61.490;23.506;2022-12-15T07:11:32;-10.10;99.90
3478;DHT22;37937;61.490;23.506;2022-12-15T07:13:57;-10.00;99.90
3478;DHT22;37937;61.490;23.506;2022-12-15T07:16:23;-10.00;99.90
3478;DHT22;37937;61.490;23.506;2022-12-15T07:18:49;-10.00;99.90
3478;DHT22;37937;61.490;23.506;2022-12-15T07:21:15;-10.00;99.90
3478;DHT22;37937;61.490;23.506;2022-12-15T07:23:41;-9.90;99.90
3478;DHT22;37937;61.490;23.506;2022-12-15T07:26:07;-9.90;99.90
3478;DHT22;37937;61.490;23.506;2022-12-15T07:28:33;-9.90;99.90
3478;DHT22;37937;61.490;23.506;2022-12-15T07:31:00;-9.90;99.90
3478;DHT22;37937;61.490;23.506;2022-12-15T07:33:26;-9.90;99.90
3478;DHT22;37937;61.490;23.506;2022-12-15T07:35:53;-9.80;99.90
3478;DHT22;37937;61.490;23.506;2022-12-15T07:38:19;-9.80;99.90
3478;DHT22;37937;61.490;23.506;2022-12-15T07:40:44;-9.70;99.90
3478;DHT22;37937;61.490;23.506;2022-12-15T07:43:10;-9.90;99.90
3478;DHT22;37937;61.490;23.506;2022-12-15T07:45:35;-9.90;99.90
3478;DHT22;37937;61.490;23.506;2022-12-15T07:48:01;-9.90;99.90
3478;DHT22;37937;61.490;23.506;2022-12-15T07:50:27;-9.80;99.90
3478;DHT22;37937;61.490;23.506;2022-12-15T07:52:53;-9.80;99.90
3478;DHT22;37937;61.490;23.506;2022-12-15T07:55:19;-9.70;99.90
3478;DHT22;37937;61.490;23.506;2022-12-15T07:57:47;-9.70;99.90
3478;DHT22;37937;61.490;23.506;2022-12-15T08:00:13;-9.90;99.90
3478;DHT22;37937;61.490;23.506;2022-12-15T08:02:40;-10.00;99.90
3478;DHT22;37937;61.490;23.506;2022-12-15T08:05:07;-10.00;99.90
3478;DHT22;37937;61.490;23.506;2022-12-15T08:07:32;-9.90;99.90
3478;DHT22;37937;61.490;23.506;2022-12-15T08:09:58;-9.80;99.90
3478;DHT22;37937;61.490;23.506;2022-12-15T08:12:24;-9.70;99.90
3478;DHT22;37937;61.490;23.506;2022-12-15T08:14:51;-9.90;99.90
3478;DHT22;37937;61.490;23.506;2022-12-15T08:17:16;-10.00;99.90
3478;DHT22;37937;61.490;23.506;2022-12-15T08:19:42;-9.90;99.90
3478;DHT22;37937;61.490;23.506;2022-12-15T08:22:07;-9.80;99.90
3478;DHT22;37937;61.490;23.506;2022-12-15T08:24:34;-9.60;99.90
3478;DHT22;37937;61.490;23.506;2022-12-15T08:26:59;-9.70;99.90
3478;DHT22;37937;61.490;23.506;2022-12-15T08:29:25;-9.50;99.90
3478;DHT22;37937;61.490;23.506;2022-12-15T08:31:50;-9.60;99.90
3478;DHT22;37937;61.490;23.506;2022-12-15T08:34:16;-9.60;99.90
3478;DHT22;37937;61.490;23.506;2022-12-15T08:36:42;-9.60;99.90
3478;DHT22;37937;61.490;23.506;2022-12-15T08:39:07;-9.50;99.90
3478;DHT22;37937;61.490;23.506;2022-12-15T08:41:35;-9.50;99.90
3478;DHT22;37937;61.490;23.506;2022-12-15T08:44:01;-9.40;99.90
3478;DHT22;37937;61.490;23.506;2022-12-15T08:46:30;-9.40;99.90
3478;DHT22;37937;61.490;23.506;2022-12-15T08:48:56;-9.50;99.90
3478;DHT22;37937;61.490;23.506;2022-12-15T08:51:22;-9.50;99.90
3478;DHT22;37937;61.490;23.506;2022-12-15T08:53:48;-9.70;99.90
3478;DHT22;37937;61.490;23.506;2022-12-15T08:56:15;-9.60;99.90
3478;DHT22;37937;61.490;23.506;2022-12-15T08:58:41;-9.70;99.90
3478;DHT22;37937;61.490;23.506;2022-12-15T09:01:09;-9.60;99.90
3478;DHT22;37937;61.490;23.506;2022-12-15T09:03:35;-9.20;99.90
3478;DHT22;37937;61.490;23.506;2022-12-15T09:06:01;-9.40;99.90
3478;DHT22;37937;61.490;23.506;2022-12-15T09:08:28;-9.40;99.90
3478;DHT22;37937;61.490;23.506;2022-12-15T09:10:58;-9.40;99.90
3478;DHT22;37937;61.490;23.506;2022-12-15T09:13:24;-9.30;99.90
3478;DHT22;37937;61.490;23.506;2022-12-15T09:18:21;-9.50;99.90
3478;DHT22;37937;61.490;23.506;2022-12-15T09:20:47;-9.50;99.90
3478;DHT22;37937;61.490;23.506;2022-12-15T09:23:13;-9.50;99.90
3478;DHT22;37937;61.490;23.506;2022-12-15T09:25:38;-9.40;99.90
3478;DHT22;37937;61.490;23.506;2022-12-15T09:28:04;-9.40;99.90
3478;DHT22;37937;61.490;23.506;2022-12-15T09:30:30;-9.40;99.90
3478;DHT22;37937;61.490;23.506;2022-12-15T09:32:55;-9.50;99.90
3478;DHT22;37937;61.490;23.506;2022-12-15T09:35:21;-9.50;99.90
3478;DHT22;37937;61.490;23.506;2022-12-15T09:37:46;-9.50;99.90
3478;DHT22;37937;61.490;23.506;2022-12-15T09:40:12;-9.60;99.90
3478;DHT22;37937;61.490;23.506;2022-12-15T09:42:38;-9.50;99.90
3478;DHT22;37937;61.490;23.506;2022-12-15T09:47:44;-9.60;99.90
3478;DHT22;37937;61.490;23.506;2022-12-15T09:50:13;-9.50;99.90
3478;DHT22;37937;61.490;23.506;2022-12-15T09:52:49;-9.50;99.90
3478;DHT22;37937;61.490;23.506;2022-12-15T09:55:20;-9.40;99.90
3478;DHT22;37937;61.490;23.506;2022-12-15T10:00:21;-9.30;99.90
3478;DHT22;37937;61.490;23.506;2022-12-15T10:07:57;-9.60;99.90
3478;DHT22;37937;61.490;23.506;2022-12-15T10:10:29;-9.50;99.90
3478;DHT22;37937;61.490;23.506;2022-12-15T10:12:57;-9.50;99.90
3478;DHT22;37937;61.490;23.506;2022-12-15T10:15:25;-9.50;99.90
3478;DHT22;37937;61.490;23.506;2022-12-15T10:17:59;-9.50;99.90
3478;DHT22;37937;61.490;23.506;2022-12-15T10:20:26;-9.50;99.90
3478;DHT22;37937;61.490;23.506;2022-12-15T10:22:53;-9.50;99.90
3478;DHT22;37937;61.490;23.506;2022-12-15T10:25:24;-9.70;99.90
3478;DHT22;37937;61.490;23.506;2022-12-15T10:30:25;-9.60;99.90
3478;DHT22;37937;61.490;23.506;2022-12-15T10:32:57;-9.60;99.90
3478;DHT22;37937;61.490;23.506;2022-12-15T10:35:32;-9.80;99.90
3478;DHT22;37937;61.490;23.506;2022-12-15T10:38:00;-9.70;99.90
3478;DHT22;37937;61.490;23.506;2022-12-15T10:40:42;-9.50;99.90
3478;DHT22;37937;61.490;23.506;2022-12-15T10:43:28;-9.70;99.90
3478;DHT22;37937;61.490;23.506;2022-12-15T10:48:37;-9.70;99.90
3478;DHT22;37937;61.490;23.506;2022-12-15T10:54:43;-9.90;99.90
3478;DHT22;37937;61.490;23.506;2022-12-15T10:56:34;-10.00;99.90
3478;DHT22;37937;61.490;23.506;2022-12-15T11:01:55;-9.80;99.90
3478;DHT22;37937;61.490;23.506;2022-12-15T11:04:24;-9.70;99.90
3478;DHT22;37937;61.490;23.506;2022-12-15T11:06:51;-9.80;99.90
3478;DHT22;37937;61.490;23.506;2022-12-15T11:11:46;-9.60;99.90
3478;DHT22;37937;61.490;23.506;2022-12-15T11:14:40;-9.60;99.90
3478;DHT22;37937;61.490;23.506;2022-12-15T11:17:06;-9.70;99.90
3478;DHT22;37937;61.490;23.506;2022-12-15T11:19:37;-9.50;99.90
3478;DHT22;37937;61.490;23.506;2022-12-15T11:22:06;-9.60;99.90
3478;DHT22;37937;61.490;23.506;2022-12-15T11:24:44;-9.50;99.90
3478;DHT22;37937;61.490;23.506;2022-12-15T11:32:03;-9.50;99.90
3478;DHT22;37937;61.490;23.506;2022-12-15T11:34:51;-9.60;99.90
3478;DHT22;37937;61.490;23.506;2022-12-15T11:42:28;-9.70;99.90
3478;DHT22;37937;61.490;23.506;2022-12-15T11:45:02;-9.70;99.90
3478;DHT22;37937;61.490;23.506;2022-12-15T11:52:46;-9.60;99.90
3478;DHT22;37937;61.490;23.506;2022-12-15T12:00:32;-9.80;99.90
3478;DHT22;37937;61.490;23.506;2022-12-15T12:11:49;-9.80;99.90
3478;DHT22;37937;61.490;23.506;2022-12-15T12:19:11;-9.70;99.90
3478;DHT22;37937;61.490;23.506;2022-12-15T12:21:38;-9.70;99.90
3478;DHT22;37937;61.490;23.506;2022-12-15T12:27:12;-9.60;99.90
3478;DHT22;37937;61.490;23.506;2022-12-15T12:29:46;-9.60;99.90
3478;DHT22;37937;61.490;23.506;2022-12-15T12:32:27;-9.60;99.90
3478;DHT22;37937;61.490;23.506;2022-12-15T12:35:02;-9.60;99.90
3478;DHT22;37937;61.490;23.506;2022-12-15T12:37:35;-9.60;99.90
3478;DHT22;37937;61.490;23.506;2022-12-15T12:40:06;-9.70;99.90
3478;DHT22;37937;61.490;23.506;2022-12-15T12:42:48;-9.80;99.90
3478;DHT22;37937;61.490;23.506;2022-12-15T12:45:14;-9.80;99.90
3478;DHT22;37937;61.490;23.506;2022-12-15T12:47:42;-9.60;99.90
3478;DHT22;37937;61.490;23.506;2022-12-15T12:50:22;-10.00;99.90
3478;DHT22;37937;61.490;23.506;2022-12-15T12:52:49;-10.00;99.90
3478;DHT22;37937;61.490;23.506;2022-12-15T12:58:59;-10.10;99.90
3478;DHT22;37937;61.490;23.506;2022-12-15T13:01:16;-10.10;99.90
3478;DHT22;37937;61.490;23.506;2022-12-15T13:03:42;-10.00;99.90
3478;DHT22;37937;61.490;23.506;2022-12-15T13:11:54;-10.00;99.90
3478;DHT22;37937;61.490;23.506;2022-12-15T13:16:45;-9.90;99.90
3478;DHT22;37937;61.490;23.506;2022-12-15T13:19:11;-10.00;99.90
3478;DHT22;37937;61.490;23.506;2022-12-15T13:26:52;-10.00;99.90
3478;DHT22;37937;61.490;23.506;2022-12-15T13:29:27;-10.00;99.90
3478;DHT22;37937;61.490;23.506;2022-12-15T13:31:52;-9.90;99.90
3478;DHT22;37937;61.490;23.506;2022-12-15T13:34:22;-9.80;99.90
3478;DHT22;37937;61.490;23.506;2022-12-15T13:36:50;-10.00;99.90
3478;DHT22;37937;61.490;23.506;2022-12-15T13:46:43;-10.10;99.90
3478;DHT22;37937;61.490;23.506;2022-12-15T13:49:14;-10.10;99.90
3478;DHT22;37937;61.490;23.506;2022-12-15T13:51:43;-10.00;99.90
3478;DHT22;37937;61.490;23.506;2022-12-15T13:54:13;-10.10;99.90
3478;DHT22;37937;61.490;23.506;2022-12-15T13:56:48;-10.10;99.90
3478;DHT22;37937;61.490;23.506;2022-12-15T13:59:24;-10.20;99.90
3478;DHT22;37937;61.490;23.506;2022-12-15T14:01:50;-10.10;99.90
3478;DHT22;37937;61.490;23.506;2022-12-15T14:04:17;-9.90;99.90
3478;DHT22;37937;61.490;23.506;2022-12-15T14:06:44;-10.10;99.90
3478;DHT22;37937;61.490;23.506;2022-12-15T14:09:11;-9.90;99.90
3478;DHT22;37937;61.490;23.506;2022-12-15T14:11:38;-10.00;99.90
3478;DHT22;37937;61.490;23.506;2022-12-15T14:14:05;-10.10;99.90
3478;DHT22;37937;61.490;23.506;2022-12-15T14:16:34;-10.10;99.90
3478;DHT22;37937;61.490;23.506;2022-12-15T14:21:28;-10.20;99.90
3478;DHT22;37937;61.490;23.506;2022-12-15T14:23:54;-10.10;99.90
3478;DHT22;37937;61.490;23.506;2022-12-15T14:26:25;-10.10;99.90
3478;DHT22;37937;61.490;23.506;2022-12-15T14:28:57;-10.00;99.90
3478;DHT22;37937;61.490;23.506;2022-12-15T14:31:25;-10.10;99.90
3478;DHT22;37937;61.490;23.506;2022-12-15T14:33:59;-10.10;99.90
3478;DHT22;37937;61.490;23.506;2022-12-15T14:36:25;-10.20;99.90
3478;DHT22;37937;61.490;23.506;2022-12-15T14:38:58;-10.10;99.90
3478;DHT22;37937;61.490;23.506;2022-12-15T14:41:28;-10.30;99.90
3478;DHT22;37937;61.490;23.506;2022-12-15T14:44:05;-10.20;99.90
3478;DHT22;37937;61.490;23.506;2022-12-15T14:46:32;-10.20;99.90
3478;DHT22;37937;61.490;23.506;2022-12-15T14:49:03;-10.00;99.90
3478;DHT22;37937;61.490;23.506;2022-12-15T14:51:30;-10.20;99.90
3478;DHT22;37937;61.490;23.506;2022-12-15T14:53:56;-10.60;99.90
3478;DHT22;37937;61.490;23.506;2022-12-15T14:56:23;-10.60;99.90
3478;DHT22;37937;61.490;23.506;2022-12-15T14:58:59;-10.60;99.90
3478;DHT22;37937;61.490;23.506;2022-12-15T15:01:38;-10.90;99.90
3478;DHT22;37937;61.490;23.506;2022-12-15T15:04:06;-11.00;99.90
3478;DHT22;37937;61.490;23.506;2022-12-15T15:06:45;-10.80;99.90
3478;DHT22;37937;61.490;23.506;2022-12-15T15:09:20;-10.80;99.90
3478;DHT22;37937;61.490;23.506;2022-12-15T15:11:47;-10.90;99.90
3478;DHT22;37937;61.490;23.506;2022-12-15T15:14:16;-11.20;99.90
3478;DHT22;37937;61.490;23.506;2022-12-15T15:16:43;-11.10;99.90
3478;DHT22;37937;61.490;23.506;2022-12-15T15:19:13;-10.90;99.90
3478;DHT22;37937;61.490;23.506;2022-12-15T15:21:40;-10.80;99.90
3478;DHT22;37937;61.490;23.506;2022-12-15T15:26:35;-11.10;99.90
3478;DHT22;37937;61.490;23.506;2022-12-15T15:29:00;-11.10;99.90
3478;DHT22;37937;61.490;23.506;2022-12-15T15:33:52;-10.80;99.90
3478;DHT22;37937;61.490;23.506;2022-12-15T15:36:18;-10.70;99.90
3478;DHT22;37937;61.490;23.506;2022-12-15T15:38:44;-10.80;99.90
3478;DHT22;37937;61.490;23.506;2022-12-15T15:43:39;-10.70;99.90
3478;DHT22;37937;61.490;23.506;2022-12-15T15:46:05;-10.70;99.90
3478;DHT22;37937;61.490;23.506;2022-12-15T15:48:33;-10.60;99.90
3478;DHT22;37937;61.490;23.506;2022-12-15T15:51:00;-10.70;99.90
3478;DHT22;37937;61.490;23.506;2022-12-15T15:53:27;-10.80;99.90
3478;DHT22;37937;61.490;23.506;2022-12-15T15:55:55;-10.70;99.90
3478;DHT22;37937;61.490;23.506;2022-12-15T15:58:21;-10.70;99.90
3478;DHT22;37937;61.490;23.506;2022-12-15T16:00:47;-10.70;99.90
3478;DHT22;37937;61.490;23.506;2022-12-15T16:03:12;-10.70;99.90
3478;DHT22;37937;61.490;23.506;2022-12-15T16:05:38;-10.80;99.90
3478;DHT22;37937;61.490;23.506;2022-12-15T16:08:04;-10.80;99.90
3478;DHT22;37937;61.490;23.506;2022-12-15T16:10:29;-11.00;99.90
3478;DHT22;37937;61.490;23.506;2022-12-15T16:12:56;-11.10;99.90
3478;DHT22;37937;61.490;23.506;2022-12-15T16:15:23;-11.50;99.90
3478;DHT22;37937;61.490;23.506;2022-12-15T16:17:50;-11.50;99.90
3478;DHT22;37937;61.490;23.506;2022-12-15T16:20:16;-11.40;99.90
3478;DHT22;37937;61.490;23.506;2022-12-15T16:22:43;-11.50;99.90
3478;DHT22;37937;61.490;23.506;2022-12-15T16:25:13;-11.30;99.90
3478;DHT22;37937;61.490;23.506;2022-12-15T16:27:40;-11.10;99.90
3478;DHT22;37937;61.490;23.506;2022-12-15T16:30:15;-11.30;99.90
3478;DHT22;37937;61.490;23.506;2022-12-15T16:32:41;-11.20;99.90
3478;DHT22;37937;61.490;23.506;2022-12-15T16:35:07;-11.30;99.90
3478;DHT22;37937;61.490;23.506;2022-12-15T16:37:33;-11.10;99.90
3478;DHT22;37937;61.490;23.506;2022-12-15T16:39:58;-10.90;99.90
3478;DHT22;37937;61.490;23.506;2022-12-15T16:42:24;-10.90;99.90
3478;DHT22;37937;61.490;23.506;2022-12-15T16:44:49;-10.80;99.90
3478;DHT22;37937;61.490;23.506;2022-12-15T16:47:15;-10.70;99.90
3478;DHT22;37937;61.490;23.506;2022-12-15T16:49:41;-10.40;99.90
3478;DHT22;37937;61.490;23.506;2022-12-15T16:52:08;-10.60;99.90
3478;DHT22;37937;61.490;23.506;2022-12-15T16:54:37;-10.60;99.90
3478;DHT22;37937;61.490;23.506;2022-12-15T16:57:03;-10.60;99.90
3478;DHT22;37937;61.490;23.506;2022-12-15T16:59:29;-10.70;99.90
3478;DHT22;37937;61.490;23.506;2022-12-15T17:01:55;-10.70;99.90
3478;DHT22;37937;61.490;23.506;2022-12-15T17:04:21;-10.70;99.90
3478;DHT22;37937;61.490;23.506;2022-12-15T17:06:47;-11.00;99.90
3478;DHT22;37937;61.490;23.506;2022-12-15T17:09:21;-10.90;99.90
3478;DHT22;37937;61.490;23.506;2022-12-15T17:11:47;-10.70;99.90
3478;DHT22;37937;61.490;23.506;2022-12-15T17:14:12;-10.60;99.90
3478;DHT22;37937;61.490;23.506;2022-12-15T17:16:38;-10.60;99.90
3478;DHT22;37937;61.490;23.506;2022-12-15T17:19:03;-10.60;99.90
3478;DHT22;37937;61.490;23.506;2022-12-15T17:21:33;-10.60;99.90
3478;DHT22;37937;61.490;23.506;2022-12-15T17:23:59;-10.60;99.90
3478;DHT22;37937;61.490;23.506;2022-12-15T17:26:28;-10.60;99.90
3478;DHT22;37937;61.490;23.506;2022-12-15T17:28:55;-10.60;99.90
3478;DHT22;37937;61.490;23.506;2022-12-15T17:31:21;-10.50;99.90
3478;DHT22;37937;61.490;23.506;2022-12-15T17:33:47;-10.70;99.90
3478;DHT22;37937;61.490;23.506;2022-12-15T17:36:20;-11.00;99.90
3478;DHT22;37937;61.490;23.506;2022-12-15T17:38:47;-11.40;99.90
3478;DHT22;37937;61.490;23.506;2022-12-15T17:41:15;-11.30;99.90